sensor_id;sensor_type;location;lat;lon;timestamp;P1;durP1;ratioP1;P2;durP2;ratioP2
3845;SDS011;1938;50.812;7.738;2023-04-28T00:00:18;7.77;;;4.60;;
3845;SDS011;1938;50.812;7.738;2023-04-28T00:02:44;9.67;;;5.50;;
3845;SDS011;1938;50.812;7.738;2023-04-28T00:05:12;8.97;;;5.13;;
3845;SDS011;1938;50.812;7.738;2023-04-28T00:07:38;6.93;;;4.17;;
3845;SDS011;1938;50.812;7.738;2023-04-28T00:10:03;10.63;;;4.70;;
3845;SDS011;1938;50.812;7.738;2023-04-28T00:12:30;19.53;;;5.33;;
3845;SDS011;1938;50.812;7.738;2023-04-28T00:14:55;18.93;;;4.67;;
3845;SDS011;1938;50.812;7.738;2023-04-28T00:17:21;8.90;;;4.57;;
3845;SDS011;1938;50.812;7.738;2023-04-28T00:19:46;10.00;;;4.47;;
3845;SDS011;1938;50.812;7.738;2023-04-28T00:22:13;14.53;;;4.70;;
3845;SDS011;1938;50.812;7.738;2023-04-28T00:24:39;9.43;;;4.53;;
3845;SDS011;1938;50.812;7.738;2023-04-28T00:27:05;12.33;;;5.10;;
3845;SDS011;1938;50.812;7.738;2023-04-28T00:29:31;7.73;;;4.73;;
3845;SDS011;1938;50.812;7.738;2023-04-28T00:31:58;11.43;;;5.17;;
3845;SDS011;1938;50.812;7.738;2023-04-28T00:34:23;14.67;;;4.70;;
3845;SDS011;1938;50.812;7.738;2023-04-28T00:36:49;9.63;;;4.50;;
3845;SDS011;1938;50.812;7.738;2023-04-28T00:39:14;26.03;;;5.53;;
3845;SDS011;1938;50.812;7.738;2023-04-28T00:41:42;9.83;;;5.40;;
3845;SDS011;1938;50.812;7.738;2023-04-28T00:44:07;6.87;;;4.40;;
3845;SDS011;1938;50.812;7.738;2023-04-28T00:46:33;16.27;;;4.80;;
3845;SDS011;1938;50.812;7.738;2023-04-28T00:48:59;6.07;;;4.60;;
3845;SDS011;1938;50.812;7.738;2023-04-28T00:51:24;14.60;;;4.70;;
3845;SDS011;1938;50.812;7.738;2023-04-28T00:53:52;12.70;;;5.40;;
3845;SDS011;1938;50.812;7.738;2023-04-28T00:56:18;11.00;;;4.70;;
3845;SDS011;1938;50.812;7.738;2023-04-28T00:58:44;9.27;;;5.03;;
3845;SDS011;1938;50.812;7.738;2023-04-28T01:01:10;9.00;;;4.33;;
3845;SDS011;1938;50.812;7.738;2023-04-28T01:03:36;15.03;;;4.80;;
3845;SDS011;1938;50.812;7.738;2023-04-28T01:06:04;10.73;;;4.57;;
3845;SDS011;1938;50.812;7.738;2023-04-28T01:08:30;14.63;;;5.40;;
3845;SDS011;1938;50.812;7.738;2023-04-28T01:10:56;8.23;;;4.73;;
3845;SDS011;1938;50.812;7.738;2023-04-28T01:13:23;12.47;;;5.13;;
3845;SDS011;1938;50.812;7.738;2023-04-28T01:15:49;8.57;;;4.57;;
3845;SDS011;1938;50.812;7.738;2023-04-28T01:18:15;11.70;;;5.00;;
3845;SDS011;1938;50.812;7.738;2023-04-28T01:20:41;11.43;;;5.03;;
3845;SDS011;1938;50.812;7.738;2023-04-28T01:23:15;8.30;;;4.70;;
3845;SDS011;1938;50.812;7.738;2023-04-28T01:25:41;6.90;;;5.10;;
3845;SDS011;1938;50.812;7.738;2023-04-28T01:28:08;9.90;;;5.60;;
3845;SDS011;1938;50.812;7.738;2023-04-28T01:30:34;8.07;;;4.30;;
3845;SDS011;1938;50.812;7.738;2023-04-28T01:33:01;11.03;;;3.80;;
3845;SDS011;1938;50.812;7.738;2023-04-28T01:35:27;5.80;;;3.53;;
3845;SDS011;1938;50.812;7.738;2023-04-28T01:37:52;12.33;;;4.33;;
3845;SDS011;1938;50.812;7.738;2023-04-28T01:40:18;15.17;;;5.77;;
3845;SDS011;1938;50.812;7.738;2023-04-28T01:42:44;15.40;;;4.03;;
3845;SDS011;1938;50.812;7.738;2023-04-28T01:45:10;9.53;;;4.80;;
3845;SDS011;1938;50.812;7.738;2023-04-28T01:47:36;10.63;;;5.27;;
3845;SDS011;1938;50.812;7.738;2023-04-28T01:50:01;9.00;;;4.40;;
3845;SDS011;1938;50.812;7.738;2023-04-28T01:52:27;7.77;;;4.30;;
3845;SDS011;1938;50.812;7.738;2023-04-28T01:54:53;16.63;;;7.20;;
3845;SDS011;1938;50.812;7.738;2023-04-28T01:57:19;8.70;;;3.60;;
3845;SDS011;1938;50.812;7.738;2023-04-28T01:59:44;17.60;;;4.30;;
3845;SDS011;1938;50.812;7.738;2023-04-28T02:02:11;7.93;;;4.30;;
3845;SDS011;1938;50.812;7.738;2023-04-28T02:04:37;6.13;;;3.10;;
3845;SDS011;1938;50.812;7.738;2023-04-28T02:07:03;6.73;;;5.17;;
3845;SDS011;1938;50.812;7.738;2023-04-28T02:09:29;5.30;;;2.90;;
3845;SDS011;1938;50.812;7.738;2023-04-28T02:11:55;8.73;;;4.50;;
3845;SDS011;1938;50.812;7.738;2023-04-28T02:14:20;5.83;;;3.10;;
3845;SDS011;1938;50.812;7.738;2023-04-28T02:16:48;8.53;;;4.50;;
3845;SDS011;1938;50.812;7.738;2023-04-28T02:19:14;8.40;;;4.73;;
3845;SDS011;1938;50.812;7.738;2023-04-28T02:21:40;9.63;;;4.20;;
3845;SDS011;1938;50.812;7.738;2023-04-28T02:24:07;14.23;;;5.00;;
3845;SDS011;1938;50.812;7.738;2023-04-28T02:26:33;10.10;;;5.60;;
3845;SDS011;1938;50.812;7.738;2023-04-28T02:28:59;8.13;;;3.83;;
3845;SDS011;1938;50.812;7.738;2023-04-28T02:31:25;13.80;;;5.30;;
3845;SDS011;1938;50.812;7.738;2023-04-28T02:33:51;9.20;;;4.57;;
3845;SDS011;1938;50.812;7.738;2023-04-28T02:36:16;5.10;;;3.80;;
3845;SDS011;1938;50.812;7.738;2023-04-28T02:38:42;5.80;;;3.53;;
3845;SDS011;1938;50.812;7.738;2023-04-28T02:41:08;16.37;;;6.87;;
3845;SDS011;1938;50.812;7.738;2023-04-28T02:43:34;5.27;;;3.17;;
3845;SDS011;1938;50.812;7.738;2023-04-28T02:46:01;14.50;;;4.97;;
3845;SDS011;1938;50.812;7.738;2023-04-28T02:48:27;8.07;;;4.50;;
3845;SDS011;1938;50.812;7.738;2023-04-28T02:50:53;11.80;;;5.63;;
3845;SDS011;1938;50.812;7.738;2023-04-28T02:53:19;8.00;;;4.93;;
3845;SDS011;1938;50.812;7.738;2023-04-28T02:55:45;8.03;;;4.40;;
3845;SDS011;1938;50.812;7.738;2023-04-28T02:58:12;8.80;;;4.87;;
3845;SDS011;1938;50.812;7.738;2023-04-28T03:00:37;7.13;;;2.60;;
3845;SDS011;1938;50.812;7.738;2023-04-28T03:03:03;9.47;;;4.43;;
3845;SDS011;1938;50.812;7.738;2023-04-28T03:05:29;12.97;;;4.90;;
3845;SDS011;1938;50.812;7.738;2023-04-28T03:07:55;10.03;;;3.63;;
3845;SDS011;1938;50.812;7.738;2023-04-28T03:10:20;19.77;;;7.60;;
3845;SDS011;1938;50.812;7.738;2023-04-28T03:12:46;12.77;;;6.87;;
3845;SDS011;1938;50.812;7.738;2023-04-28T03:15:11;10.90;;;4.60;;
3845;SDS011;1938;50.812;7.738;2023-04-28T03:17:38;14.53;;;5.80;;
3845;SDS011;1938;50.812;7.738;2023-04-28T03:20:06;8.80;;;5.20;;
3845;SDS011;1938;50.812;7.738;2023-04-28T03:22:33;18.17;;;6.30;;
3845;SDS011;1938;50.812;7.738;2023-04-28T03:24:59;17.57;;;6.47;;
3845;SDS011;1938;50.812;7.738;2023-04-28T03:27:24;15.17;;;5.67;;
3845;SDS011;1938;50.812;7.738;2023-04-28T03:29:50;11.73;;;5.30;;
3845;SDS011;1938;50.812;7.738;2023-04-28T03:32:16;8.50;;;4.60;;
3845;SDS011;1938;50.812;7.738;2023-04-28T03:34:42;7.80;;;3.93;;
3845;SDS011;1938;50.812;7.738;2023-04-28T03:37:07;11.97;;;6.10;;
3845;SDS011;1938;50.812;7.738;2023-04-28T03:39:33;12.70;;;6.77;;
3845;SDS011;1938;50.812;7.738;2023-04-28T03:41:58;14.03;;;5.57;;
3845;SDS011;1938;50.812;7.738;2023-04-28T03:44:25;13.63;;;7.10;;
3845;SDS011;1938;50.812;7.738;2023-04-28T03:46:50;13.90;;;7.13;;
3845;SDS011;1938;50.812;7.738;2023-04-28T03:49:16;15.53;;;6.20;;
3845;SDS011;1938;50.812;7.738;2023-04-28T03:51:42;9.03;;;5.90;;
3845;SDS011;1938;50.812;7.738;2023-04-28T03:54:07;11.23;;;6.40;;
3845;SDS011;1938;50.812;7.738;2023-04-28T03:56:33;12.50;;;7.20;;
3845;SDS011;1938;50.812;7.738;2023-04-28T03:58:58;11.13;;;4.90;;
3845;SDS011;1938;50.812;7.738;2023-04-28T04:01:24;9.10;;;5.30;;
3845;SDS011;1938;50.812;7.738;2023-04-28T04:03:50;20.53;;;7.13;;
3845;SDS011;1938;50.812;7.738;2023-04-28T04:06:16;13.03;;;6.00;;
3845;SDS011;1938;50.812;7.738;2023-04-28T04:08:42;14.03;;;6.27;;
3845;SDS011;1938;50.812;7.738;2023-04-28T04:11:07;22.83;;;7.53;;
3845;SDS011;1938;50.812;7.738;2023-04-28T04:13:33;12.30;;;6.27;;
3845;SDS011;1938;50.812;7.738;2023-04-28T04:15:58;15.40;;;5.43;;
3845;SDS011;1938;50.812;7.738;2023-04-28T04:18:24;8.97;;;5.40;;
3845;SDS011;1938;50.812;7.738;2023-04-28T04:20:50;9.97;;;5.33;;
3845;SDS011;1938;50.812;7.738;2023-04-28T04:23:17;17.67;;;7.47;;
3845;SDS011;1938;50.812;7.738;2023-04-28T04:25:44;14.93;;;7.10;;
3845;SDS011;1938;50.812;7.738;2023-04-28T04:28:10;13.50;;;6.53;;
3845;SDS011;1938;50.812;7.738;2023-04-28T04:30:35;17.47;;;8.70;;
3845;SDS011;1938;50.812;7.738;2023-04-28T04:33:01;10.13;;;5.60;;
3845;SDS011;1938;50.812;7.738;2023-04-28T04:35:26;17.43;;;5.73;;
3845;SDS011;1938;50.812;7.738;2023-04-28T04:37:52;11.23;;;6.10;;
3845;SDS011;1938;50.812;7.738;2023-04-28T04:40:18;12.10;;;6.40;;
3845;SDS011;1938;50.812;7.738;2023-04-28T04:42:43;13.07;;;6.87;;
3845;SDS011;1938;50.812;7.738;2023-04-28T04:45:09;15.07;;;8.13;;
3845;SDS011;1938;50.812;7.738;2023-04-28T04:47:36;14.20;;;7.80;;
3845;SDS011;1938;50.812;7.738;2023-04-28T04:50:01;20.17;;;9.10;;
3845;SDS011;1938;50.812;7.738;2023-04-28T04:52:27;20.70;;;7.10;;
3845;SDS011;1938;50.812;7.738;2023-04-28T04:54:53;20.83;;;12.27;;
3845;SDS011;1938;50.812;7.738;2023-04-28T04:57:20;15.00;;;7.80;;
3845;SDS011;1938;50.812;7.738;2023-04-28T04:59:45;10.70;;;6.67;;
3845;SDS011;1938;50.812;7.738;2023-04-28T05:02:11;25.37;;;11.50;;
3845;SDS011;1938;50.812;7.738;2023-04-28T05:04:36;18.20;;;7.93;;
3845;SDS011;1938;50.812;7.738;2023-04-28T05:07:02;18.90;;;9.77;;
3845;SDS011;1938;50.812;7.738;2023-04-28T05:09:28;17.80;;;9.80;;
3845;SDS011;1938;50.812;7.738;2023-04-28T05:11:54;18.00;;;10.27;;
3845;SDS011;1938;50.812;7.738;2023-04-28T05:14:20;19.10;;;9.27;;
3845;SDS011;1938;50.812;7.738;2023-04-28T05:16:45;19.93;;;8.97;;
3845;SDS011;1938;50.812;7.738;2023-04-28T05:19:11;17.97;;;8.27;;
3845;SDS011;1938;50.812;7.738;2023-04-28T05:21:37;22.77;;;7.57;;
3845;SDS011;1938;50.812;7.738;2023-04-28T05:24:03;25.60;;;10.20;;
3845;SDS011;1938;50.812;7.738;2023-04-28T05:26:29;18.83;;;10.00;;
3845;SDS011;1938;50.812;7.738;2023-04-28T05:28:54;20.53;;;9.07;;
3845;SDS011;1938;50.812;7.738;2023-04-28T05:31:20;12.67;;;7.83;;
3845;SDS011;1938;50.812;7.738;2023-04-28T05:33:47;17.73;;;8.83;;
3845;SDS011;1938;50.812;7.738;2023-04-28T05:36:12;17.77;;;9.03;;
3845;SDS011;1938;50.812;7.738;2023-04-28T05:38:40;20.20;;;10.13;;
3845;SDS011;1938;50.812;7.738;2023-04-28T05:41:06;16.17;;;9.63;;
3845;SDS011;1938;50.812;7.738;2023-04-28T05:43:32;16.10;;;9.37;;
3845;SDS011;1938;50.812;7.738;2023-04-28T05:45:57;18.93;;;11.30;;
3845;SDS011;1938;50.812;7.738;2023-04-28T05:48:24;17.37;;;10.33;;
3845;SDS011;1938;50.812;7.738;2023-04-28T05:50:49;21.53;;;12.40;;
3845;SDS011;1938;50.812;7.738;2023-04-28T05:53:15;20.47;;;13.33;;
3845;SDS011;1938;50.812;7.738;2023-04-28T05:55:41;18.43;;;11.33;;
3845;SDS011;1938;50.812;7.738;2023-04-28T05:58:06;30.00;;;13.47;;
3845;SDS011;1938;50.812;7.738;2023-04-28T06:00:32;24.70;;;12.90;;
3845;SDS011;1938;50.812;7.738;2023-04-28T06:02:58;21.27;;;10.47;;
3845;SDS011;1938;50.812;7.738;2023-04-28T06:05:24;22.17;;;12.17;;
3845;SDS011;1938;50.812;7.738;2023-04-28T06:07:50;20.97;;;12.23;;
3845;SDS011;1938;50.812;7.738;2023-04-28T06:10:15;22.17;;;13.60;;
3845;SDS011;1938;50.812;7.738;2023-04-28T06:12:42;22.73;;;13.60;;
3845;SDS011;1938;50.812;7.738;2023-04-28T06:15:09;25.67;;;13.60;;
3845;SDS011;1938;50.812;7.738;2023-04-28T06:17:35;22.73;;;11.97;;
3845;SDS011;1938;50.812;7.738;2023-04-28T06:20:01;24.10;;;13.47;;
3845;SDS011;1938;50.812;7.738;2023-04-28T06:22:27;21.50;;;12.23;;
3845;SDS011;1938;50.812;7.738;2023-04-28T06:24:52;27.73;;;12.73;;
3845;SDS011;1938;50.812;7.738;2023-04-28T06:27:19;24.83;;;14.37;;
3845;SDS011;1938;50.812;7.738;2023-04-28T06:29:44;27.47;;;13.30;;
3845;SDS011;1938;50.812;7.738;2023-04-28T06:32:10;31.80;;;15.50;;
3845;SDS011;1938;50.812;7.738;2023-04-28T06:34:36;21.27;;;13.73;;
3845;SDS011;1938;50.812;7.738;2023-04-28T06:37:02;24.23;;;13.70;;
3845;SDS011;1938;50.812;7.738;2023-04-28T06:39:27;35.33;;;14.40;;
3845;SDS011;1938;50.812;7.738;2023-04-28T06:41:54;27.43;;;14.20;;
3845;SDS011;1938;50.812;7.738;2023-04-28T06:44:20;21.67;;;13.10;;
3845;SDS011;1938;50.812;7.738;2023-04-28T06:46:45;22.40;;;12.70;;
3845;SDS011;1938;50.812;7.738;2023-04-28T06:49:11;25.43;;;14.67;;
3845;SDS011;1938;50.812;7.738;2023-04-28T06:51:36;23.40;;;13.50;;
3845;SDS011;1938;50.812;7.738;2023-04-28T06:54:02;26.23;;;12.93;;
3845;SDS011;1938;50.812;7.738;2023-04-28T06:56:28;29.77;;;14.13;;
3845;SDS011;1938;50.812;7.738;2023-04-28T06:58:54;25.43;;;14.33;;
3845;SDS011;1938;50.812;7.738;2023-04-28T07:01:21;20.90;;;13.93;;
3845;SDS011;1938;50.812;7.738;2023-04-28T07:03:46;30.03;;;15.43;;
3845;SDS011;1938;50.812;7.738;2023-04-28T07:06:12;28.87;;;14.70;;
3845;SDS011;1938;50.812;7.738;2023-04-28T07:08:40;21.87;;;10.77;;
3845;SDS011;1938;50.812;7.738;2023-04-28T07:11:06;26.90;;;11.50;;
3845;SDS011;1938;50.812;7.738;2023-04-28T07:13:31;24.67;;;13.90;;
3845;SDS011;1938;50.812;7.738;2023-04-28T07:15:57;29.00;;;12.60;;
3845;SDS011;1938;50.812;7.738;2023-04-28T07:18:23;27.10;;;13.90;;
3845;SDS011;1938;50.812;7.738;2023-04-28T07:20:48;19.53;;;10.07;;
3845;SDS011;1938;50.812;7.738;2023-04-28T07:23:15;22.57;;;11.17;;
3845;SDS011;1938;50.812;7.738;2023-04-28T07:25:40;26.60;;;13.57;;
3845;SDS011;1938;50.812;7.738;2023-04-28T07:28:06;20.77;;;12.07;;
3845;SDS011;1938;50.812;7.738;2023-04-28T07:30:33;19.00;;;8.30;;
3845;SDS011;1938;50.812;7.738;2023-04-28T07:32:59;23.23;;;11.80;;
3845;SDS011;1938;50.812;7.738;2023-04-28T07:35:26;28.87;;;15.13;;
3845;SDS011;1938;50.812;7.738;2023-04-28T07:37:51;18.97;;;10.80;;
3845;SDS011;1938;50.812;7.738;2023-04-28T07:40:17;24.50;;;14.37;;
3845;SDS011;1938;50.812;7.738;2023-04-28T07:42:43;36.37;;;15.70;;
3845;SDS011;1938;50.812;7.738;2023-04-28T07:45:09;29.27;;;10.00;;
3845;SDS011;1938;50.812;7.738;2023-04-28T07:47:36;22.80;;;13.10;;
3845;SDS011;1938;50.812;7.738;2023-04-28T07:50:02;40.20;;;14.97;;
3845;SDS011;1938;50.812;7.738;2023-04-28T07:52:29;24.00;;;14.10;;
3845;SDS011;1938;50.812;7.738;2023-04-28T07:54:55;28.33;;;12.43;;
3845;SDS011;1938;50.812;7.738;2023-04-28T07:57:21;18.87;;;8.63;;
3845;SDS011;1938;50.812;7.738;2023-04-28T07:59:46;20.00;;;10.70;;
3845;SDS011;1938;50.812;7.738;2023-04-28T08:02:13;20.20;;;10.40;;
3845;SDS011;1938;50.812;7.738;2023-04-28T08:04:40;19.20;;;11.97;;
3845;SDS011;1938;50.812;7.738;2023-04-28T08:07:05;34.40;;;13.30;;
3845;SDS011;1938;50.812;7.738;2023-04-28T08:09:32;22.10;;;12.40;;
3845;SDS011;1938;50.812;7.738;2023-04-28T08:11:59;27.67;;;12.70;;
3845;SDS011;1938;50.812;7.738;2023-04-28T08:14:25;25.67;;;12.07;;
3845;SDS011;1938;50.812;7.738;2023-04-28T08:16:51;20.20;;;11.30;;
3845;SDS011;1938;50.812;7.738;2023-04-28T08:19:16;14.63;;;8.27;;
3845;SDS011;1938;50.812;7.738;2023-04-28T08:21:42;21.70;;;11.17;;
3845;SDS011;1938;50.812;7.738;2023-04-28T08:24:08;20.13;;;12.37;;
3845;SDS011;1938;50.812;7.738;2023-04-28T08:26:35;18.00;;;10.40;;
3845;SDS011;1938;50.812;7.738;2023-04-28T08:29:01;20.40;;;10.17;;
3845;SDS011;1938;50.812;7.738;2023-04-28T08:31:27;21.53;;;11.93;;
3845;SDS011;1938;50.812;7.738;2023-04-28T08:33:53;38.63;;;14.67;;
3845;SDS011;1938;50.812;7.738;2023-04-28T08:36:18;22.70;;;13.07;;
3845;SDS011;1938;50.812;7.738;2023-04-28T08:38:45;21.13;;;12.20;;
3845;SDS011;1938;50.812;7.738;2023-04-28T08:41:11;21.10;;;12.27;;
3845;SDS011;1938;50.812;7.738;2023-04-28T08:43:39;23.30;;;12.53;;
3845;SDS011;1938;50.812;7.738;2023-04-28T08:46:07;19.97;;;12.97;;
3845;SDS011;1938;50.812;7.738;2023-04-28T08:48:38;17.13;;;9.70;;
3845;SDS011;1938;50.812;7.738;2023-04-28T08:51:05;20.17;;;10.50;;
3845;SDS011;1938;50.812;7.738;2023-04-28T08:53:31;17.00;;;11.00;;
3845;SDS011;1938;50.812;7.738;2023-04-28T08:56:01;22.93;;;13.40;;
3845;SDS011;1938;50.812;7.738;2023-04-28T08:58:30;23.83;;;12.57;;
3845;SDS011;1938;50.812;7.738;2023-04-28T09:00:56;24.40;;;12.80;;
3845;SDS011;1938;50.812;7.738;2023-04-28T09:03:21;22.37;;;13.50;;
3845;SDS011;1938;50.812;7.738;2023-04-28T09:05:47;15.20;;;8.60;;
3845;SDS011;1938;50.812;7.738;2023-04-28T09:08:13;25.43;;;12.60;;
3845;SDS011;1938;50.812;7.738;2023-04-28T09:10:39;26.90;;;11.23;;
3845;SDS011;1938;50.812;7.738;2023-04-28T09:13:05;18.07;;;10.27;;
3845;SDS011;1938;50.812;7.738;2023-04-28T09:15:37;25.77;;;11.13;;
3845;SDS011;1938;50.812;7.738;2023-04-28T09:18:06;19.30;;;10.50;;
3845;SDS011;1938;50.812;7.738;2023-04-28T09:20:33;19.80;;;10.97;;
3845;SDS011;1938;50.812;7.738;2023-04-28T09:23:15;21.47;;;13.73;;
3845;SDS011;1938;50.812;7.738;2023-04-28T09:28:39;17.33;;;11.23;;
3845;SDS011;1938;50.812;7.738;2023-04-28T09:31:05;16.57;;;9.80;;
3845;SDS011;1938;50.812;7.738;2023-04-28T09:34:03;14.00;;;8.73;;
3845;SDS011;1938;50.812;7.738;2023-04-28T09:36:29;19.03;;;10.10;;
3845;SDS011;1938;50.812;7.738;2023-04-28T09:38:58;16.07;;;9.33;;
3845;SDS011;1938;50.812;7.738;2023-04-28T09:41:40;14.00;;;8.20;;
3845;SDS011;1938;50.812;7.738;2023-04-28T09:44:13;14.40;;;8.93;;
3845;SDS011;1938;50.812;7.738;2023-04-28T09:46:42;13.70;;;9.00;;
3845;SDS011;1938;50.812;7.738;2023-04-28T09:49:09;19.43;;;9.07;;
3845;SDS011;1938;50.812;7.738;2023-04-28T09:51:35;13.23;;;7.20;;
3845;SDS011;1938;50.812;7.738;2023-04-28T09:54:00;15.20;;;7.97;;
3845;SDS011;1938;50.812;7.738;2023-04-28T09:56:30;22.83;;;8.37;;
3845;SDS011;1938;50.812;7.738;2023-04-28T09:58:58;13.00;;;7.80;;
3845;SDS011;1938;50.812;7.738;2023-04-28T10:01:26;14.77;;;7.43;;
3845;SDS011;1938;50.812;7.738;2023-04-28T10:03:56;12.23;;;7.70;;
3845;SDS011;1938;50.812;7.738;2023-04-28T10:06:24;11.80;;;6.10;;
3845;SDS011;1938;50.812;7.738;2023-04-28T10:08:52;13.90;;;8.13;;
3845;SDS011;1938;50.812;7.738;2023-04-28T10:11:21;15.83;;;7.40;;
3845;SDS011;1938;50.812;7.738;2023-04-28T10:13:49;12.30;;;7.70;;
3845;SDS011;1938;50.812;7.738;2023-04-28T10:16:16;12.57;;;6.60;;
3845;SDS011;1938;50.812;7.738;2023-04-28T10:18:43;16.03;;;7.10;;
3845;SDS011;1938;50.812;7.738;2023-04-28T10:21:09;10.97;;;7.10;;
3845;SDS011;1938;50.812;7.738;2023-04-28T10:26:19;9.70;;;5.60;;
3845;SDS011;1938;50.812;7.738;2023-04-28T10:28:46;9.70;;;5.53;;
3845;SDS011;1938;50.812;7.738;2023-04-28T10:33:42;11.87;;;6.60;;
3845;SDS011;1938;50.812;7.738;2023-04-28T10:36:10;9.80;;;5.70;;
3845;SDS011;1938;50.812;7.738;2023-04-28T10:39:06;11.50;;;6.50;;
3845;SDS011;1938;50.812;7.738;2023-04-28T10:41:36;16.03;;;6.83;;
3845;SDS011;1938;50.812;7.738;2023-04-28T10:47:02;12.90;;;8.03;;
3845;SDS011;1938;50.812;7.738;2023-04-28T11:00:44;13.60;;;8.00;;
3845;SDS011;1938;50.812;7.738;2023-04-28T11:11:37;15.00;;;8.47;;
3845;SDS011;1938;50.812;7.738;2023-04-28T11:16:47;17.20;;;7.90;;
3845;SDS011;1938;50.812;7.738;2023-04-28T11:19:21;13.57;;;7.60;;
3845;SDS011;1938;50.812;7.738;2023-04-28T11:21:48;16.70;;;7.80;;
3845;SDS011;1938;50.812;7.738;2023-04-28T11:24:16;15.30;;;7.47;;
3845;SDS011;1938;50.812;7.738;2023-04-28T11:26:42;13.70;;;7.63;;
3845;SDS011;1938;50.812;7.738;2023-04-28T11:29:08;11.90;;;8.10;;
3845;SDS011;1938;50.812;7.738;2023-04-28T11:31:35;14.93;;;8.10;;
3845;SDS011;1938;50.812;7.738;2023-04-28T11:34:04;11.40;;;7.37;;
3845;SDS011;1938;50.812;7.738;2023-04-28T11:36:35;12.80;;;7.87;;
3845;SDS011;1938;50.812;7.738;2023-04-28T11:39:05;13.30;;;6.70;;
3845;SDS011;1938;50.812;7.738;2023-04-28T11:41:42;11.87;;;7.00;;
3845;SDS011;1938;50.812;7.738;2023-04-28T11:46:34;14.10;;;8.20;;
3845;SDS011;1938;50.812;7.738;2023-04-28T11:49:04;11.40;;;7.80;;
3845;SDS011;1938;50.812;7.738;2023-04-28T11:51:36;11.63;;;7.20;;
3845;SDS011;1938;50.812;7.738;2023-04-28T11:54:03;11.83;;;6.60;;
3845;SDS011;1938;50.812;7.738;2023-04-28T11:56:35;11.87;;;7.27;;
3845;SDS011;1938;50.812;7.738;2023-04-28T11:59:02;12.30;;;8.17;;
3845;SDS011;1938;50.812;7.738;2023-04-28T12:01:47;15.53;;;6.80;;
3845;SDS011;1938;50.812;7.738;2023-04-28T12:04:13;10.60;;;6.63;;
3845;SDS011;1938;50.812;7.738;2023-04-28T12:06:57;12.13;;;7.03;;
3845;SDS011;1938;50.812;7.738;2023-04-28T12:09:23;16.20;;;7.60;;
3845;SDS011;1938;50.812;7.738;2023-04-28T12:11:53;11.07;;;7.27;;
3845;SDS011;1938;50.812;7.738;2023-04-28T12:14:23;12.33;;;6.97;;
3845;SDS011;1938;50.812;7.738;2023-04-28T12:16:49;9.33;;;6.23;;
3845;SDS011;1938;50.812;7.738;2023-04-28T12:19:16;16.80;;;8.03;;
3845;SDS011;1938;50.812;7.738;2023-04-28T12:21:42;12.80;;;6.97;;
3845;SDS011;1938;50.812;7.738;2023-04-28T12:24:20;11.27;;;6.90;;
3845;SDS011;1938;50.812;7.738;2023-04-28T12:26:47;9.90;;;5.97;;
3845;SDS011;1938;50.812;7.738;2023-04-28T12:32:03;10.50;;;7.33;;
3845;SDS011;1938;50.812;7.738;2023-04-28T12:34:29;12.13;;;7.07;;
3845;SDS011;1938;50.812;7.738;2023-04-28T12:36:56;10.37;;;5.37;;
3845;SDS011;1938;50.812;7.738;2023-04-28T12:39:21;12.00;;;5.47;;
3845;SDS011;1938;50.812;7.738;2023-04-28T12:41:47;12.57;;;5.83;;
3845;SDS011;1938;50.812;7.738;2023-04-28T12:44:13;6.53;;;4.60;;
3845;SDS011;1938;50.812;7.738;2023-04-28T12:46:40;8.70;;;4.63;;
3845;SDS011;1938;50.812;7.738;2023-04-28T12:49:05;8.93;;;5.07;;
3845;SDS011;1938;50.812;7.738;2023-04-28T12:51:31;7.63;;;4.97;;
3845;SDS011;1938;50.812;7.738;2023-04-28T12:53:58;9.67;;;4.57;;
3845;SDS011;1938;50.812;7.738;2023-04-28T12:56:24;7.07;;;3.30;;
3845;SDS011;1938;50.812;7.738;2023-04-28T12:58:51;6.97;;;3.90;;
3845;SDS011;1938;50.812;7.738;2023-04-28T13:01:16;5.60;;;3.40;;
3845;SDS011;1938;50.812;7.738;2023-04-28T13:03:42;6.73;;;3.33;;
3845;SDS011;1938;50.812;7.738;2023-04-28T13:06:08;9.50;;;3.50;;
3845;SDS011;1938;50.812;7.738;2023-04-28T13:08:35;8.53;;;4.90;;
3845;SDS011;1938;50.812;7.738;2023-04-28T13:11:01;6.93;;;4.47;;
3845;SDS011;1938;50.812;7.738;2023-04-28T13:13:29;7.10;;;3.97;;
3845;SDS011;1938;50.812;7.738;2023-04-28T13:15:55;10.00;;;3.30;;
3845;SDS011;1938;50.812;7.738;2023-04-28T13:18:20;6.90;;;4.80;;
3845;SDS011;1938;50.812;7.738;2023-04-28T13:20:47;7.10;;;4.70;;
3845;SDS011;1938;50.812;7.738;2023-04-28T13:23:13;5.40;;;3.30;;
3845;SDS011;1938;50.812;7.738;2023-04-28T13:25:38;6.27;;;3.70;;
3845;SDS011;1938;50.812;7.738;2023-04-28T13:28:04;6.20;;;3.17;;
3845;SDS011;1938;50.812;7.738;2023-04-28T13:30:29;8.33;;;4.00;;
3845;SDS011;1938;50.812;7.738;2023-04-28T13:32:55;5.73;;;3.70;;
3845;SDS011;1938;50.812;7.738;2023-04-28T13:35:21;5.33;;;3.30;;
3845;SDS011;1938;50.812;7.738;2023-04-28T13:37:49;5.17;;;2.93;;
3845;SDS011;1938;50.812;7.738;2023-04-28T13:40:15;6.47;;;3.93;;
3845;SDS011;1938;50.812;7.738;2023-04-28T13:42:40;6.07;;;3.63;;
3845;SDS011;1938;50.812;7.738;2023-04-28T13:45:06;8.50;;;3.90;;
3845;SDS011;1938;50.812;7.738;2023-04-28T13:47:32;8.70;;;4.37;;
3845;SDS011;1938;50.812;7.738;2023-04-28T13:49:58;5.80;;;3.17;;
3845;SDS011;1938;50.812;7.738;2023-04-28T13:52:24;5.37;;;3.30;;
3845;SDS011;1938;50.812;7.738;2023-04-28T13:54:50;6.60;;;3.73;;
3845;SDS011;1938;50.812;7.738;2023-04-28T13:57:16;6.77;;;3.70;;
3845;SDS011;1938;50.812;7.738;2023-04-28T13:59:41;12.13;;;2.90;;
3845;SDS011;1938;50.812;7.738;2023-04-28T14:02:08;6.77;;;3.43;;
3845;SDS011;1938;50.812;7.738;2023-04-28T14:04:35;4.87;;;2.60;;
3845;SDS011;1938;50.812;7.738;2023-04-28T14:07:01;5.13;;;2.60;;
3845;SDS011;1938;50.812;7.738;2023-04-28T14:09:27;6.33;;;2.73;;
3845;SDS011;1938;50.812;7.738;2023-04-28T14:11:53;5.60;;;2.83;;
3845;SDS011;1938;50.812;7.738;2023-04-28T14:14:22;6.33;;;3.50;;
3845;SDS011;1938;50.812;7.738;2023-04-28T14:16:48;4.93;;;2.80;;
3845;SDS011;1938;50.812;7.738;2023-04-28T14:19:13;5.70;;;3.13;;
3845;SDS011;1938;50.812;7.738;2023-04-28T14:21:41;5.53;;;3.07;;
3845;SDS011;1938;50.812;7.738;2023-04-28T14:24:08;5.03;;;2.50;;
3845;SDS011;1938;50.812;7.738;2023-04-28T14:26:34;5.60;;;3.37;;
3845;SDS011;1938;50.812;7.738;2023-04-28T14:29:00;7.77;;;3.20;;
3845;SDS011;1938;50.812;7.738;2023-04-28T14:31:26;5.43;;;2.83;;
3845;SDS011;1938;50.812;7.738;2023-04-28T14:33:52;6.47;;;2.90;;
3845;SDS011;1938;50.812;7.738;2023-04-28T14:36:18;4.80;;;2.57;;
3845;SDS011;1938;50.812;7.738;2023-04-28T14:38:44;5.53;;;2.90;;
3845;SDS011;1938;50.812;7.738;2023-04-28T14:41:09;4.80;;;2.17;;
3845;SDS011;1938;50.812;7.738;2023-04-28T14:43:35;4.93;;;2.33;;
3845;SDS011;1938;50.812;7.738;2023-04-28T14:46:01;7.10;;;3.10;;
3845;SDS011;1938;50.812;7.738;2023-04-28T14:48:28;6.40;;;2.27;;
3845;SDS011;1938;50.812;7.738;2023-04-28T14:50:56;5.33;;;2.63;;
3845;SDS011;1938;50.812;7.738;2023-04-28T14:53:21;5.33;;;2.33;;
3845;SDS011;1938;50.812;7.738;2023-04-28T14:55:48;4.80;;;2.33;;
3845;SDS011;1938;50.812;7.738;2023-04-28T14:58:14;5.70;;;2.30;;
3845;SDS011;1938;50.812;7.738;2023-04-28T15:00:40;7.47;;;2.57;;
3845;SDS011;1938;50.812;7.738;2023-04-28T15:03:06;4.43;;;2.20;;
3845;SDS011;1938;50.812;7.738;2023-04-28T15:05:32;5.10;;;2.70;;
3845;SDS011;1938;50.812;7.738;2023-04-28T15:07:58;4.03;;;2.03;;
3845;SDS011;1938;50.812;7.738;2023-04-28T15:10:23;4.70;;;2.00;;
3845;SDS011;1938;50.812;7.738;2023-04-28T15:12:54;4.57;;;2.27;;
3845;SDS011;1938;50.812;7.738;2023-04-28T15:15:21;4.30;;;2.10;;
3845;SDS011;1938;50.812;7.738;2023-04-28T15:17:47;4.63;;;2.53;;
3845;SDS011;1938;50.812;7.738;2023-04-28T15:20:13;7.20;;;2.30;;
3845;SDS011;1938;50.812;7.738;2023-04-28T15:22:39;4.80;;;2.70;;
3845;SDS011;1938;50.812;7.738;2023-04-28T15:25:05;5.93;;;2.80;;
3845;SDS011;1938;50.812;7.738;2023-04-28T15:27:31;17.20;;;10.20;;
3845;SDS011;1938;50.812;7.738;2023-04-28T15:29:56;19.03;;;12.63;;
3845;SDS011;1938;50.812;7.738;2023-04-28T15:32:22;4.17;;;2.53;;
3845;SDS011;1938;50.812;7.738;2023-04-28T15:34:47;4.13;;;2.00;;
3845;SDS011;1938;50.812;7.738;2023-04-28T15:40:11;4.10;;;2.53;;